createdAt,value
2022-07-31T00:00:44.343Z,1015.82
2022-07-31T00:01:44.510Z,1015.81
2022-07-31T00:02:44.750Z,1015.81
2022-07-31T00:03:44.908Z,1015.79
2022-07-31T00:04:44.993Z,1015.79
2022-07-31T00:05:45.152Z,1015.77
2022-07-31T00:06:45.333Z,1015.76
2022-07-31T00:07:45.503Z,1015.74
2022-07-31T00:08:45.664Z,1015.75
2022-07-31T00:09:53.410Z,1015.74
2022-07-31T00:10:47.015Z,1015.74
2022-07-31T00:11:46.215Z,1015.71
2022-07-31T00:12:46.366Z,1015.71
2022-07-31T00:13:57.708Z,1015.71
2022-07-31T00:14:47.677Z,1015.76
2022-07-31T00:15:46.865Z,1015.71
2022-07-31T00:16:47.036Z,1015.73
2022-07-31T00:17:47.206Z,1015.74
2022-07-31T00:18:47.369Z,1015.76
2022-07-31T00:19:47.526Z,1015.79
2022-07-31T00:20:47.688Z,1015.80
2022-07-31T00:21:47.848Z,1015.77
2022-07-31T00:22:48.058Z,1015.78
2022-07-31T00:23:48.219Z,1015.81
2022-07-31T00:24:48.380Z,1015.81
2022-07-31T00:25:48.537Z,1015.84
2022-07-31T00:26:48.690Z,1015.84
2022-07-31T00:27:48.870Z,1015.84
2022-07-31T00:28:49.031Z,1015.80
2022-07-31T00:29:49.195Z,1015.83
2022-07-31T00:30:49.353Z,1015.80
2022-07-31T00:31:49.521Z,1015.80
2022-07-31T00:32:51.834Z,1015.82
2022-07-31T00:33:49.847Z,1015.77
2022-07-31T00:34:50.041Z,1015.73
2022-07-31T00:35:50.188Z,1015.70
2022-07-31T00:36:50.378Z,1015.69
2022-07-31T00:37:52.268Z,1015.66
2022-07-31T00:38:50.753Z,1015.64
2022-07-31T00:39:50.906Z,1015.62
2022-07-31T00:40:51.095Z,1015.62
2022-07-31T00:41:51.255Z,1015.67
2022-07-31T00:42:51.446Z,1015.64
2022-07-31T00:43:51.613Z,1015.63
2022-07-31T00:44:51.756Z,1015.62
2022-07-31T00:45:58.737Z,1015.66
2022-07-31T00:46:53.087Z,1015.62
2022-07-31T00:47:55.965Z,1015.70
2022-07-31T00:48:52.522Z,1015.64
2022-07-31T00:49:52.626Z,1015.63
2022-07-31T00:50:52.808Z,1015.66
2022-07-31T00:51:52.969Z,1015.64
2022-07-31T00:52:53.143Z,1015.61
2022-07-31T00:53:53.311Z,1015.62
2022-07-31T00:54:53.462Z,1015.58
2022-07-31T00:55:53.622Z,1015.61
2022-07-31T00:56:53.787Z,1015.57
2022-07-31T00:57:53.964Z,1015.59
2022-07-31T00:58:54.123Z,1015.58
2022-07-31T00:59:54.274Z,1015.59
2022-07-31T01:00:54.548Z,1015.55
2022-07-31T01:01:54.641Z,1015.54
2022-07-31T01:02:54.862Z,1015.57
2022-07-31T01:03:55.005Z,1015.56
2022-07-31T01:04:55.166Z,1015.54
2022-07-31T01:05:55.355Z,1015.59
2022-07-31T01:06:55.514Z,1015.60
2022-07-31T01:07:55.677Z,1015.65
2022-07-31T01:08:55.847Z,1015.64
2022-07-31T01:09:56.008Z,1015.66
2022-07-31T01:10:56.197Z,1015.66
2022-07-31T01:11:56.348Z,1015.65
2022-07-31T01:12:56.549Z,1015.67
2022-07-31T01:13:56.708Z,1015.66
2022-07-31T01:14:56.869Z,1015.69
2022-07-31T01:15:57.036Z,1015.67
2022-07-31T01:16:57.199Z,1015.65
2022-07-31T01:17:57.369Z,1015.65
2022-07-31T01:18:57.529Z,1015.68
2022-07-31T01:19:57.688Z,1015.66
2022-07-31T01:20:57.851Z,1015.64
2022-07-31T01:21:58.002Z,1015.62
2022-07-31T01:22:58.183Z,1015.64
2022-07-31T01:23:58.344Z,1015.60
2022-07-31T01:24:58.503Z,1015.62
2022-07-31T01:25:58.658Z,1015.60
2022-07-31T01:26:58.850Z,1015.60
2022-07-31T01:27:59.013Z,1015.59
2022-07-31T01:28:59.184Z,1015.59
2022-07-31T01:29:59.335Z,1015.55
2022-07-31T01:31:17.305Z,1015.53
2022-07-31T01:32:00.707Z,1015.56
2022-07-31T01:32:59.905Z,1015.54
2022-07-31T01:34:00.070Z,1015.53
2022-07-31T01:35:00.226Z,1015.54
2022-07-31T01:36:00.385Z,1015.56
2022-07-31T01:37:00.740Z,1015.56
2022-07-31T01:38:00.706Z,1015.57
2022-07-31T01:39:00.912Z,1015.59
2022-07-31T01:40:01.133Z,1015.59
2022-07-31T01:41:01.229Z,1015.58
2022-07-31T01:42:01.705Z,1015.59
2022-07-31T01:43:01.599Z,1015.55
2022-07-31T01:44:01.700Z,1015.62
2022-07-31T01:45:01.894Z,1015.59
2022-07-31T01:46:02.097Z,1015.63
2022-07-31T01:47:02.558Z,1015.62
2022-07-31T01:48:02.432Z,1015.66
2022-07-31T01:49:02.625Z,1015.59
2022-07-31T01:50:02.761Z,1015.63
2022-07-31T01:51:02.931Z,1015.66
2022-07-31T01:52:04.815Z,1015.62
2022-07-31T01:53:03.283Z,1015.61
2022-07-31T01:54:03.434Z,1015.65
2022-07-31T01:55:03.668Z,1015.64
2022-07-31T01:56:04.446Z,1015.65
2022-07-31T01:57:03.953Z,1015.68
2022-07-31T01:58:04.105Z,1015.69
2022-07-31T01:59:04.305Z,1015.67
2022-07-31T02:00:04.469Z,1015.65
2022-07-31T02:01:04.685Z,1015.63
2022-07-31T02:02:05.414Z,1015.65
2022-07-31T02:03:09.426Z,1015.67
2022-07-31T02:04:06.139Z,1015.68
2022-07-31T02:05:05.340Z,1015.66
2022-07-31T02:06:05.520Z,1015.65
2022-07-31T02:07:05.688Z,1015.67
2022-07-31T02:08:05.829Z,1015.68
2022-07-31T02:09:06.021Z,1015.67
2022-07-31T02:10:06.210Z,1015.66
2022-07-31T02:11:06.380Z,1015.68
2022-07-31T02:12:09.829Z,1015.65
2022-07-31T02:13:06.761Z,1015.67
2022-07-31T02:14:06.911Z,1015.61
2022-07-31T02:15:07.092Z,1015.61
2022-07-31T02:16:07.252Z,1015.63
2022-07-31T02:17:07.442Z,1015.64
2022-07-31T02:18:07.600Z,1015.60
2022-07-31T02:19:07.793Z,1015.60
2022-07-31T02:20:07.984Z,1015.60
2022-07-31T02:21:08.104Z,1015.57
2022-07-31T02:22:08.284Z,1015.62
2022-07-31T02:23:08.449Z,1015.59
2022-07-31T02:24:08.634Z,1015.57
2022-07-31T02:25:08.812Z,1015.57
2022-07-31T02:26:08.975Z,1015.57
2022-07-31T02:27:54.041Z,1015.52
2022-07-31T02:28:10.318Z,1015.53
2022-07-31T02:29:19.726Z,1015.50
2022-07-31T02:30:10.699Z,1015.49
2022-07-31T02:31:09.872Z,1015.46
2022-07-31T02:32:10.097Z,1015.45
2022-07-31T02:33:10.222Z,1015.46
2022-07-31T02:34:10.376Z,1015.48
2022-07-31T02:35:10.530Z,1015.47
2022-07-31T02:36:10.701Z,1015.52
2022-07-31T02:37:10.884Z,1015.51
2022-07-31T02:38:22.313Z,1015.52
2022-07-31T02:39:12.221Z,1015.49
2022-07-31T02:40:11.401Z,1015.51
2022-07-31T02:41:11.590Z,1015.50
2022-07-31T02:42:11.737Z,1015.44
2022-07-31T02:43:11.899Z,1015.43
2022-07-31T02:44:12.053Z,1015.38
2022-07-31T02:45:12.213Z,1015.36
2022-07-31T02:46:12.404Z,1015.35
2022-07-31T02:47:12.536Z,1015.37
2022-07-31T02:48:12.725Z,1015.34
2022-07-31T02:49:12.900Z,1015.38
2022-07-31T02:50:13.026Z,1015.39
2022-07-31T02:51:13.256Z,1015.47
2022-07-31T02:52:13.395Z,1015.46
2022-07-31T02:53:13.556Z,1015.45
2022-07-31T02:54:13.715Z,1015.44
2022-07-31T02:55:13.867Z,1015.45
2022-07-31T02:56:14.077Z,1015.46
2022-07-31T02:57:14.238Z,1015.40
2022-07-31T02:58:14.391Z,1015.43
2022-07-31T02:59:14.579Z,1015.38
2022-07-31T03:00:14.741Z,1015.39
2022-07-31T03:01:15.034Z,1015.38
2022-07-31T03:02:15.093Z,1015.39
2022-07-31T03:03:15.249Z,1015.37
2022-07-31T03:04:15.401Z,1015.40
2022-07-31T03:05:15.591Z,1015.35
2022-07-31T03:06:15.810Z,1015.35
2022-07-31T03:07:15.932Z,1015.36
2022-07-31T03:08:16.094Z,1015.35
2022-07-31T03:09:16.262Z,1015.38
2022-07-31T03:10:16.414Z,1015.36
2022-07-31T03:11:16.583Z,1015.32
2022-07-31T03:12:16.754Z,1015.31
2022-07-31T03:13:16.914Z,1015.36
2022-07-31T03:14:17.076Z,1015.33
2022-07-31T03:15:17.270Z,1015.34
2022-07-31T03:16:17.436Z,1015.36
2022-07-31T03:17:17.595Z,1015.38
2022-07-31T03:18:17.747Z,1015.36
2022-07-31T03:19:17.937Z,1015.38
2022-07-31T03:20:18.108Z,1015.36
2022-07-31T03:21:18.277Z,1015.45
2022-07-31T03:22:18.450Z,1015.42
2022-07-31T03:23:18.612Z,1015.44
2022-07-31T03:24:18.769Z,1015.37
2022-07-31T03:25:20.095Z,1015.31
2022-07-31T03:26:19.158Z,1015.30
2022-07-31T03:27:19.319Z,1015.30
2022-07-31T03:28:19.482Z,1015.30
2022-07-31T03:29:42.466Z,1015.32
2022-07-31T03:30:20.822Z,1015.30
2022-07-31T03:31:20.011Z,1015.37
2022-07-31T03:32:20.172Z,1015.35
2022-07-31T03:33:20.332Z,1015.35
2022-07-31T03:34:20.492Z,1015.38
2022-07-31T03:35:20.682Z,1015.39
2022-07-31T03:36:20.866Z,1015.37
2022-07-31T03:37:21.031Z,1015.39
2022-07-31T03:38:42.398Z,1015.34
2022-07-31T03:39:22.395Z,1015.40
2022-07-31T03:40:21.555Z,1015.38
2022-07-31T03:41:21.785Z,1015.36
2022-07-31T03:42:21.915Z,1015.41
2022-07-31T03:43:22.095Z,1015.40
2022-07-31T03:44:22.278Z,1015.42
2022-07-31T03:45:22.447Z,1015.40
2022-07-31T03:46:22.669Z,1015.38
2022-07-31T03:47:22.807Z,1015.42
2022-07-31T03:48:22.997Z,1015.43
2022-07-31T03:49:23.248Z,1015.38
2022-07-31T03:50:23.347Z,1015.41
2022-07-31T03:51:23.549Z,1015.44
2022-07-31T03:52:23.689Z,1015.44
2022-07-31T03:53:23.868Z,1015.44
2022-07-31T03:54:24.050Z,1015.43
2022-07-31T03:55:24.221Z,1015.45
2022-07-31T03:56:24.421Z,1015.43
2022-07-31T03:57:27.585Z,1015.43
2022-07-31T03:58:25.744Z,1015.41
2022-07-31T03:59:24.928Z,1015.41
2022-07-31T04:00:25.140Z,1015.43
2022-07-31T04:01:25.368Z,1015.45
2022-07-31T04:02:25.529Z,1015.38
2022-07-31T04:03:25.613Z,1015.38
2022-07-31T04:04:25.794Z,1015.43
2022-07-31T04:05:25.972Z,1015.44
2022-07-31T04:06:26.164Z,1015.44
2022-07-31T04:07:26.315Z,1015.44
2022-07-31T04:08:26.502Z,1015.47
2022-07-31T04:09:26.673Z,1015.45
2022-07-31T04:10:26.854Z,1015.49
2022-07-31T04:11:27.026Z,1015.55
2022-07-31T04:12:27.217Z,1015.51
2022-07-31T04:13:27.365Z,1015.48
2022-07-31T04:14:27.537Z,1015.49
2022-07-31T04:15:27.715Z,1015.51
2022-07-31T04:16:27.928Z,1015.49
2022-07-31T04:17:28.067Z,1015.52
2022-07-31T04:18:28.241Z,1015.51
2022-07-31T04:19:28.409Z,1015.50
2022-07-31T04:20:28.589Z,1015.52
2022-07-31T04:21:28.784Z,1015.60
2022-07-31T04:22:28.930Z,1015.56
2022-07-31T04:23:32.641Z,1015.56
2022-07-31T04:24:29.272Z,1015.54
2022-07-31T04:25:29.462Z,1015.52
2022-07-31T04:26:29.632Z,1015.58
2022-07-31T04:27:29.813Z,1015.51
2022-07-31T04:28:29.992Z,1015.48
2022-07-31T04:29:30.166Z,1015.53
2022-07-31T04:30:30.354Z,1015.49
2022-07-31T04:31:30.505Z,1015.48
2022-07-31T04:32:30.683Z,1015.50
2022-07-31T04:33:30.864Z,1015.52
2022-07-31T04:34:31.054Z,1015.50
2022-07-31T04:35:31.195Z,1015.51
2022-07-31T04:36:31.380Z,1015.54
2022-07-31T04:37:31.559Z,1015.62
2022-07-31T04:38:31.735Z,1015.61
2022-07-31T04:39:31.925Z,1015.59
2022-07-31T04:40:32.108Z,1015.57
2022-07-31T04:41:32.287Z,1015.57
2022-07-31T04:42:32.686Z,1015.60
2022-07-31T04:43:32.627Z,1015.60
2022-07-31T04:44:32.819Z,1015.61
2022-07-31T04:45:32.989Z,1015.60
2022-07-31T04:46:33.167Z,1015.59
2022-07-31T04:47:33.342Z,1015.59
2022-07-31T04:48:33.521Z,1015.62
2022-07-31T04:49:33.759Z,1015.59
2022-07-31T04:50:33.871Z,1015.57
2022-07-31T04:51:34.051Z,1015.55
2022-07-31T04:52:34.231Z,1015.59
2022-07-31T04:53:34.402Z,1015.59
2022-07-31T04:54:34.582Z,1015.53
2022-07-31T04:55:34.721Z,1015.53
2022-07-31T04:56:34.908Z,1015.53
2022-07-31T04:57:35.084Z,1015.51
2022-07-31T04:58:35.272Z,1015.53
2022-07-31T04:59:57.707Z,1015.48
2022-07-31T05:00:36.630Z,1015.50
2022-07-31T05:01:35.856Z,1015.51
2022-07-31T05:02:35.982Z,1015.50
2022-07-31T05:03:36.167Z,1015.47
2022-07-31T05:04:36.367Z,1015.48
2022-07-31T05:05:36.506Z,1015.52
2022-07-31T05:06:36.696Z,1015.50
2022-07-31T05:07:36.877Z,1015.48
2022-07-31T05:08:37.060Z,1015.48
2022-07-31T05:09:37.258Z,1015.50
2022-07-31T05:10:37.408Z,1015.50
2022-07-31T05:11:37.593Z,1015.51
2022-07-31T05:12:37.791Z,1015.55
2022-07-31T05:13:37.940Z,1015.56
2022-07-31T05:14:38.120Z,1015.53
2022-07-31T05:15:38.269Z,1015.57
2022-07-31T05:16:38.465Z,1015.58
2022-07-31T05:17:38.650Z,1015.56
2022-07-31T05:18:38.836Z,1015.59
2022-07-31T05:19:39.035Z,1015.59
2022-07-31T05:20:39.191Z,1015.60
2022-07-31T05:21:53.456Z,1015.56
2022-07-31T05:22:40.562Z,1015.62
2022-07-31T05:23:39.756Z,1015.59
2022-07-31T05:24:39.923Z,1015.60
2022-07-31T05:25:40.103Z,1015.61
2022-07-31T05:26:40.294Z,1015.63
2022-07-31T05:27:41.377Z,1015.65
2022-07-31T05:28:40.685Z,1015.65
2022-07-31T05:29:40.804Z,1015.69
2022-07-31T05:30:40.992Z,1015.65
2022-07-31T05:31:59.790Z,1015.67
2022-07-31T05:32:42.366Z,1015.71
2022-07-31T05:33:41.576Z,1015.66
2022-07-31T05:34:41.727Z,1015.66
2022-07-31T05:35:43.350Z,1015.66
2022-07-31T05:36:42.110Z,1015.66
2022-07-31T05:37:42.260Z,1015.67
2022-07-31T05:38:42.471Z,1015.67
2022-07-31T05:39:42.648Z,1015.67
2022-07-31T05:40:42.810Z,1015.67
2022-07-31T05:41:42.991Z,1015.70
2022-07-31T05:42:43.159Z,1015.72
2022-07-31T05:43:43.349Z,1015.73
2022-07-31T05:44:43.550Z,1015.71
2022-07-31T05:45:43.711Z,1015.79
2022-07-31T05:46:43.881Z,1015.76
2022-07-31T05:47:44.066Z,1015.75
2022-07-31T05:48:44.298Z,1015.76
2022-07-31T05:49:44.392Z,1015.78
2022-07-31T05:50:44.573Z,1015.79
2022-07-31T05:51:44.734Z,1015.81
2022-07-31T05:52:44.921Z,1015.85
2022-07-31T05:53:45.800Z,1015.84
2022-07-31T05:54:45.379Z,1015.84
2022-07-31T05:55:45.446Z,1015.81
2022-07-31T05:56:45.635Z,1015.84
2022-07-31T05:57:45.815Z,1015.83
2022-07-31T05:58:48.240Z,1015.84
2022-07-31T05:59:46.187Z,1015.87
2022-07-31T06:00:46.374Z,1015.84
2022-07-31T06:01:46.682Z,1015.86
2022-07-31T06:02:46.717Z,1015.83
2022-07-31T06:03:51.952Z,1015.85
2022-07-31T06:04:48.068Z,1015.83
2022-07-31T06:05:47.270Z,1015.80
2022-07-31T06:06:47.433Z,1015.83
2022-07-31T06:07:51.846Z,1015.86
2022-07-31T06:08:47.763Z,1015.83
2022-07-31T06:09:47.920Z,1015.86
2022-07-31T06:10:48.120Z,1015.83
2022-07-31T06:11:48.284Z,1015.82
2022-07-31T06:12:48.481Z,1015.83
2022-07-31T06:13:48.645Z,1015.80
2022-07-31T06:14:48.839Z,1015.76
2022-07-31T06:15:49.519Z,1015.74
2022-07-31T06:16:49.245Z,1015.74
2022-07-31T06:17:49.393Z,1015.74
2022-07-31T06:18:49.592Z,1015.70
2022-07-31T06:19:49.764Z,1015.71
2022-07-31T06:20:49.944Z,1015.73
2022-07-31T06:21:50.638Z,1015.76
2022-07-31T06:22:50.289Z,1015.76
2022-07-31T06:23:50.455Z,1015.77
2022-07-31T06:24:50.634Z,1015.80
2022-07-31T06:25:50.837Z,1015.84
2022-07-31T06:26:50.977Z,1015.78
2022-07-31T06:27:59.376Z,1015.84
2022-07-31T06:28:52.337Z,1015.82
2022-07-31T06:29:51.622Z,1015.82
2022-07-31T06:30:51.727Z,1015.84
2022-07-31T06:31:51.873Z,1015.81
2022-07-31T06:32:52.058Z,1015.80
2022-07-31T06:33:52.605Z,1015.78
2022-07-31T06:34:52.466Z,1015.83
2022-07-31T06:35:52.589Z,1015.84
2022-07-31T06:36:52.792Z,1015.85
2022-07-31T06:37:52.944Z,1015.87
2022-07-31T06:38:53.101Z,1015.86
2022-07-31T06:39:54.391Z,1015.86
2022-07-31T06:40:53.441Z,1015.84
2022-07-31T06:41:53.631Z,1015.87
2022-07-31T06:42:53.811Z,1015.85
2022-07-31T06:43:53.967Z,1015.86
2022-07-31T06:44:54.164Z,1015.84
2022-07-31T06:45:54.330Z,1015.86
2022-07-31T06:46:54.496Z,1015.87
2022-07-31T06:47:54.674Z,1015.87
2022-07-31T06:48:54.912Z,1015.88
2022-07-31T06:49:55.054Z,1015.89
2022-07-31T06:51:14.410Z,1015.84
2022-07-31T06:51:56.435Z,1015.84
2022-07-31T06:52:55.584Z,1015.84
2022-07-31T06:53:55.766Z,1015.83
2022-07-31T06:54:55.962Z,1015.85
2022-07-31T06:55:56.168Z,1015.85
2022-07-31T06:56:56.297Z,1015.84
2022-07-31T06:57:56.481Z,1015.82
2022-07-31T06:58:56.671Z,1015.82
2022-07-31T06:59:56.884Z,1015.84
2022-07-31T07:00:57.102Z,1015.82
2022-07-31T07:01:57.209Z,1015.87
2022-07-31T07:02:57.389Z,1015.87
2022-07-31T07:03:57.541Z,1015.90
2022-07-31T07:05:05.829Z,1015.84
2022-07-31T07:05:58.880Z,1015.81
2022-07-31T07:06:58.077Z,1015.83
2022-07-31T07:07:58.263Z,1015.84
2022-07-31T07:08:58.470Z,1015.84
2022-07-31T07:09:58.639Z,1015.84
2022-07-31T07:10:58.786Z,1015.85
2022-07-31T07:11:58.963Z,1015.81
2022-07-31T07:12:59.115Z,1015.81
2022-07-31T07:13:59.304Z,1015.81
2022-07-31T07:14:59.507Z,1015.80
2022-07-31T07:15:59.656Z,1015.80
2022-07-31T07:16:59.833Z,1015.80
2022-07-31T07:18:00.001Z,1015.75
2022-07-31T07:19:00.173Z,1015.77
2022-07-31T07:20:00.370Z,1015.77
2022-07-31T07:21:00.545Z,1015.73
2022-07-31T07:22:00.972Z,1015.76
2022-07-31T07:23:00.924Z,1015.73
2022-07-31T07:24:01.102Z,1015.72
2022-07-31T07:25:01.361Z,1015.72
2022-07-31T07:26:01.476Z,1015.68
2022-07-31T07:27:01.668Z,1015.69
2022-07-31T07:28:01.852Z,1015.65
2022-07-31T07:29:02.048Z,1015.66
2022-07-31T07:30:02.251Z,1015.59
2022-07-31T07:31:02.369Z,1015.60
2022-07-31T07:32:02.935Z,1015.57
2022-07-31T07:33:02.706Z,1015.53
2022-07-31T07:34:02.841Z,1015.50
2022-07-31T07:35:03.048Z,1015.52
2022-07-31T07:36:03.191Z,1015.48
2022-07-31T07:37:03.377Z,1015.47
2022-07-31T07:38:03.571Z,1015.52
2022-07-31T07:39:03.772Z,1015.47
2022-07-31T07:40:04.352Z,1015.47
2022-07-31T07:41:04.108Z,1015.46
2022-07-31T07:42:04.605Z,1015.48
2022-07-31T07:43:04.447Z,1015.42
2022-07-31T07:44:04.652Z,1015.44
2022-07-31T07:45:08.124Z,1015.45
2022-07-31T07:46:04.946Z,1015.43
2022-07-31T07:47:05.117Z,1015.44
2022-07-31T07:48:07.417Z,1015.44
2022-07-31T07:49:05.593Z,1015.38
2022-07-31T07:50:05.645Z,1015.38
2022-07-31T07:51:05.826Z,1015.37
2022-07-31T07:52:05.977Z,1015.33
2022-07-31T07:53:06.186Z,1015.35
2022-07-31T07:54:06.329Z,1015.34
2022-07-31T07:55:06.477Z,1015.34
2022-07-31T07:56:06.672Z,1015.34
2022-07-31T07:57:06.858Z,1015.31
2022-07-31T07:58:11.704Z,1015.36
2022-07-31T07:59:14.895Z,1015.30
2022-07-31T08:00:08.355Z,1015.34
2022-07-31T08:01:07.634Z,1015.28
2022-07-31T08:02:07.820Z,1015.28
2022-07-31T08:03:50.377Z,1015.30
2022-07-31T08:04:09.053Z,1015.31
2022-07-31T08:05:08.210Z,1015.34
2022-07-31T08:06:08.394Z,1015.34
2022-07-31T08:07:08.556Z,1015.35
2022-07-31T08:08:08.724Z,1015.35
2022-07-31T08:09:08.867Z,1015.38
2022-07-31T08:10:09.058Z,1015.38
2022-07-31T08:11:09.232Z,1015.39
2022-07-31T08:12:09.404Z,1015.31
2022-07-31T08:13:09.603Z,1015.35
2022-07-31T08:14:09.775Z,1015.35
2022-07-31T08:15:09.955Z,1015.40
2022-07-31T08:16:10.136Z,1015.30
2022-07-31T08:17:10.339Z,1015.27
2022-07-31T08:18:10.488Z,1015.28
2022-07-31T08:19:10.668Z,1015.24
2022-07-31T08:20:10.850Z,1015.29
2022-07-31T08:21:11.007Z,1015.29
2022-07-31T08:22:11.190Z,1015.32
2022-07-31T08:23:11.328Z,1015.36
2022-07-31T08:24:12.500Z,1015.36
2022-07-31T08:25:15.230Z,1015.28
2022-07-31T08:26:13.066Z,1015.33
2022-07-31T08:27:12.003Z,1015.39
2022-07-31T08:28:14.862Z,1015.33
2022-07-31T08:29:13.353Z,1015.30
2022-07-31T08:30:12.533Z,1015.29
2022-07-31T08:31:12.712Z,1015.33
2022-07-31T08:32:12.873Z,1015.34
2022-07-31T08:33:13.024Z,1015.34
2022-07-31T08:34:31.771Z,1015.34
2022-07-31T08:35:14.405Z,1015.31
2022-07-31T08:36:13.568Z,1015.30
2022-07-31T08:37:51.870Z,1015.33
2022-07-31T08:38:14.904Z,1015.29
2022-07-31T08:39:17.574Z,1015.28
2022-07-31T08:40:15.276Z,1015.24
2022-07-31T08:41:14.438Z,1015.21
2022-07-31T08:42:14.606Z,1015.26
2022-07-31T08:44:00.791Z,1015.22
2022-07-31T08:44:15.958Z,1015.19
2022-07-31T08:45:15.127Z,1015.19
2022-07-31T08:46:15.318Z,1015.21
2022-07-31T08:47:15.505Z,1015.18
2022-07-31T08:48:15.680Z,1015.25
2022-07-31T08:49:15.950Z,1015.20
2022-07-31T08:50:16.226Z,1015.18
2022-07-31T08:51:16.204Z,1015.15
2022-07-31T08:52:16.415Z,1015.11
2022-07-31T08:53:16.574Z,1015.15
2022-07-31T08:54:16.716Z,1015.15
2022-07-31T08:55:24.859Z,1015.13
2022-07-31T08:56:18.072Z,1015.14
2022-07-31T08:57:17.272Z,1015.15
2022-07-31T08:58:17.413Z,1015.12
2022-07-31T08:59:17.602Z,1015.15
2022-07-31T09:00:17.793Z,1015.19
2022-07-31T09:01:18.037Z,1015.21
2022-07-31T09:02:18.154Z,1015.14
2022-07-31T09:03:18.324Z,1015.18
2022-07-31T09:04:18.504Z,1015.14
2022-07-31T09:05:18.704Z,1015.11
2022-07-31T09:06:18.876Z,1015.13
2022-07-31T09:07:19.063Z,1015.16
2022-07-31T09:08:19.246Z,1015.17
2022-07-31T09:09:19.426Z,1015.15
2022-07-31T09:10:19.633Z,1015.13
2022-07-31T09:11:19.771Z,1015.14
2022-07-31T09:12:19.979Z,1015.08
2022-07-31T09:13:21.148Z,1015.11
2022-07-31T09:14:20.334Z,1015.09
2022-07-31T09:15:20.530Z,1015.09
2022-07-31T09:16:24.262Z,1015.09
2022-07-31T09:17:21.879Z,1015.07
2022-07-31T09:18:21.041Z,1015.11
2022-07-31T09:19:52.579Z,1015.10
2022-07-31T09:20:22.412Z,1015.11
2022-07-31T09:21:21.572Z,1015.04
2022-07-31T09:22:21.760Z,1015.03
2022-07-31T09:23:21.943Z,1015.02
2022-07-31T09:24:22.132Z,1015.01
2022-07-31T09:25:22.332Z,1015.01
2022-07-31T09:26:22.473Z,1014.98
2022-07-31T09:27:22.670Z,1015.02
2022-07-31T09:28:25.172Z,1015.05
2022-07-31T09:29:23.003Z,1015.07
2022-07-31T09:30:23.199Z,1015.07
2022-07-31T09:31:23.364Z,1015.06
2022-07-31T09:32:23.531Z,1015.08
2022-07-31T09:33:23.726Z,1015.05
2022-07-31T09:34:23.930Z,1015.03
2022-07-31T09:35:24.072Z,1015.04
2022-07-31T09:36:24.217Z,1014.98
2022-07-31T09:37:24.397Z,1014.97
2022-07-31T09:38:24.589Z,1014.94
2022-07-31T09:39:27.728Z,1014.93
2022-07-31T09:40:24.979Z,1014.93
2022-07-31T09:41:56.360Z,1014.92
2022-07-31T09:42:26.317Z,1014.89
2022-07-31T09:43:25.737Z,1014.94
2022-07-31T09:44:26.351Z,1014.91
2022-07-31T09:45:25.878Z,1014.90
2022-07-31T09:46:26.056Z,1014.89
2022-07-31T09:47:26.241Z,1014.86
2022-07-31T09:48:28.607Z,1014.83
2022-07-31T09:49:26.638Z,1014.86
2022-07-31T09:50:26.776Z,1014.84
2022-07-31T09:51:26.955Z,1014.87
2022-07-31T09:52:27.144Z,1014.83
2022-07-31T09:53:27.344Z,1014.81
2022-07-31T09:54:27.486Z,1014.81
2022-07-31T09:55:27.749Z,1014.85
2022-07-31T09:56:27.836Z,1014.82
2022-07-31T09:57:28.015Z,1014.82
2022-07-31T09:58:28.236Z,1014.83
2022-07-31T09:59:28.376Z,1014.83
2022-07-31T10:00:28.569Z,1014.84
2022-07-31T10:01:28.774Z,1014.87
2022-07-31T10:02:30.448Z,1014.86
2022-07-31T10:03:29.103Z,1014.78
2022-07-31T10:04:31.284Z,1014.78
2022-07-31T10:05:30.350Z,1014.77
2022-07-31T10:06:29.589Z,1014.77
2022-07-31T10:07:32.463Z,1014.75
2022-07-31T10:08:33.089Z,1014.78
2022-07-31T10:09:30.226Z,1014.76
2022-07-31T10:10:30.317Z,1014.74
2022-07-31T10:11:30.443Z,1014.76
2022-07-31T10:12:31.736Z,1014.77
2022-07-31T10:13:30.973Z,1014.78
2022-07-31T10:14:31.013Z,1014.72
2022-07-31T10:15:31.163Z,1014.73
2022-07-31T10:16:31.392Z,1014.69
2022-07-31T10:17:35.055Z,1014.68
2022-07-31T10:18:35.931Z,1014.71
2022-07-31T10:19:32.887Z,1014.79
2022-07-31T10:20:32.074Z,1014.71
2022-07-31T10:21:32.332Z,1014.66
2022-07-31T10:22:32.425Z,1014.73
2022-07-31T10:23:32.655Z,1014.65
2022-07-31T10:24:32.782Z,1014.69
2022-07-31T10:25:32.967Z,1014.68
2022-07-31T10:26:59.367Z,1014.66
2022-07-31T10:27:39.368Z,1014.65
2022-07-31T10:28:36.565Z,1014.64
2022-07-31T10:29:33.688Z,1014.65
2022-07-31T10:30:33.890Z,1014.60
2022-07-31T10:31:34.054Z,1014.61
2022-07-31T10:32:34.261Z,1014.60
2022-07-31T10:33:44.010Z,1014.62
2022-07-31T10:34:35.589Z,1014.60
2022-07-31T10:35:34.755Z,1014.56
2022-07-31T10:36:34.925Z,1014.53
2022-07-31T10:37:35.064Z,1014.51
2022-07-31T10:38:38.237Z,1014.53
2022-07-31T10:39:35.403Z,1014.58
2022-07-31T10:40:35.602Z,1014.57
2022-07-31T10:41:35.763Z,1014.56
2022-07-31T10:42:35.943Z,1014.59
2022-07-31T10:43:36.095Z,1014.56
2022-07-31T10:44:38.691Z,1014.52
2022-07-31T10:45:36.454Z,1014.52
2022-07-31T10:46:36.666Z,1014.52
2022-07-31T10:47:36.805Z,1014.49
2022-07-31T10:48:36.997Z,1014.47
2022-07-31T10:49:37.207Z,1014.45
2022-07-31T10:50:37.366Z,1014.44
2022-07-31T10:51:37.570Z,1014.43
2022-07-31T10:52:37.757Z,1014.42
2022-07-31T10:53:51.172Z,1014.46
2022-07-31T10:54:39.082Z,1014.49
2022-07-31T10:55:38.228Z,1014.47
2022-07-31T10:56:38.438Z,1014.39
2022-07-31T10:57:56.274Z,1014.40
2022-07-31T10:58:39.768Z,1014.45
2022-07-31T10:59:41.757Z,1014.38
2022-07-31T11:00:40.081Z,1014.42
2022-07-31T11:01:39.328Z,1014.40
2022-07-31T11:02:40.517Z,1014.36
2022-07-31T11:03:39.616Z,1014.39
2022-07-31T11:04:39.809Z,1014.38
2022-07-31T11:06:00.967Z,1014.47
2022-07-31T11:06:41.156Z,1014.42
2022-07-31T11:07:40.312Z,1014.40
2022-07-31T11:08:40.505Z,1014.39
2022-07-31T11:09:50.417Z,1014.42
2022-07-31T11:10:41.822Z,1014.42
2022-07-31T11:11:40.984Z,1014.45
2022-07-31T11:12:41.154Z,1014.44
2022-07-31T11:13:41.327Z,1014.40
2022-07-31T11:14:41.525Z,1014.39
2022-07-31T11:15:41.729Z,1014.42
2022-07-31T11:16:41.837Z,1014.32
2022-07-31T11:18:16.598Z,1014.25
2022-07-31T11:18:43.187Z,1014.34
2022-07-31T11:19:42.379Z,1014.31
2022-07-31T11:20:42.580Z,1014.29
2022-07-31T11:21:43.639Z,1014.28
2022-07-31T11:22:42.978Z,1014.31
2022-07-31T11:24:02.244Z,1014.21
2022-07-31T11:24:44.253Z,1014.21
2022-07-31T11:25:43.400Z,1014.18
2022-07-31T11:26:43.589Z,1014.21
2022-07-31T11:27:43.753Z,1014.14
2022-07-31T11:28:44.020Z,1014.12
2022-07-31T11:30:00.202Z,1014.23
2022-07-31T11:30:45.291Z,1014.25
2022-07-31T11:31:44.472Z,1014.24
2022-07-31T11:32:44.663Z,1014.18
2022-07-31T11:33:44.865Z,1014.19
2022-07-31T11:34:45.020Z,1014.14
2022-07-31T11:35:45.202Z,1014.15
2022-07-31T11:36:50.707Z,1014.15
2022-07-31T11:37:57.955Z,1014.18
2022-07-31T11:38:47.530Z,1014.13
2022-07-31T11:39:51.414Z,1014.17
2022-07-31T11:40:47.074Z,1014.15
2022-07-31T11:41:46.251Z,1014.17
2022-07-31T11:42:50.044Z,1014.24
2022-07-31T11:43:47.580Z,1014.17
2022-07-31T11:44:46.748Z,1014.10
2022-07-31T11:45:46.929Z,1014.06
2022-07-31T11:46:47.097Z,1014.06
2022-07-31T11:48:12.124Z,1014.08
2022-07-31T11:48:48.508Z,1014.05
2022-07-31T11:49:48.995Z,1014.01
2022-07-31T11:50:47.813Z,1014.06
2022-07-31T11:51:48.012Z,1014.06
2022-07-31T11:52:48.191Z,1014.06
2022-07-31T11:53:50.685Z,1014.03
2022-07-31T11:54:49.520Z,1014.05
2022-07-31T11:55:48.696Z,1014.02
2022-07-31T11:56:48.871Z,1014.02
2022-07-31T11:57:52.579Z,1014.06
2022-07-31T11:58:49.212Z,1014.04
2022-07-31T11:59:49.798Z,1014.01
2022-07-31T12:00:49.567Z,1013.99
2022-07-31T12:01:49.713Z,1014.01
2022-07-31T12:02:49.943Z,1014.00
2022-07-31T12:03:50.043Z,1013.98
2022-07-31T12:04:50.205Z,1013.96
2022-07-31T12:05:50.377Z,1013.96
2022-07-31T12:06:50.560Z,1013.96
2022-07-31T12:07:50.725Z,1013.95